Time;durP1;ratioP1;P1;durP2;ratioP2;P2;SDS_P1;SDS_P2;PMS_P1;PMS_P2;Temp;Humidity;BMP_temperature;BMP_pressure;BME280_temperature;BME280_humidity;BME280_pressure;Samples;Min_cycle;Max_cycle;Signal;HPM_P1;HPM_P2
2022/06/09 00:01:14;;;;;;;28.60;20.00;;;;;;;;;;5135954;27;20442;-70
2022/06/09 00:03:45;;;;;;;22.30;17.20;;;;;;;;;;5136400;27;20429;-70
2022/06/09 00:06:12;;;;;;;23.07;16.53;;;;;;;;;;5135954;27;20427;-71
2022/06/09 00:08:41;;;;;;;25.23;18.13;;;;;;;;;;5135761;27;20438;-70
2022/06/09 00:11:09;;;;;;;21.57;17.10;;;;;;;;;;5135756;27;20525;-69
2022/06/09 00:13:38;;;;;;;23.63;18.77;;;;;;;;;;5135645;27;20532;-69
2022/06/09 00:16:05;;;;;;;22.07;15.57;;;;;;;;;;5135724;27;20475;-69
2022/06/09 00:18:33;;;;;;;23.57;17.03;;;;;;;;;;5135452;27;20977;-69
2022/06/09 00:21:01;;;;;;;30.73;16.50;;;;;;;;;;5135561;27;20948;-69
2022/06/09 00:23:28;;;;;;;21.83;15.57;;;;;;;;;;5135183;27;21032;-69
2022/06/09 00:25:56;;;;;;;19.43;14.63;;;;;;;;;;5136078;27;20452;-69
2022/06/09 00:28:23;;;;;;;27.03;16.10;;;;;;;;;;5135335;27;20483;-69
2022/06/09 00:30:52;;;;;;;20.20;14.40;;;;;;;;;;5135707;27;20471;-70
2022/06/09 00:33:20;;;;;;;25.57;15.37;;;;;;;;;;5136369;27;20441;-69
2022/06/09 00:35:47;;;;;;;17.80;15.57;;;;;;;;;;5135561;27;20487;-69
2022/06/09 00:38:14;;;;;;;19.23;14.10;;;;;;;;;;5135765;27;20440;-69
2022/06/09 00:40:41;;;;;;;18.10;14.17;;;;;;;;;;5135759;27;20442;-70
2022/06/09 00:43:09;;;;;;;18.13;15.57;;;;;;;;;;5135151;27;20459;-69
2022/06/09 00:45:37;;;;;;;19.50;14.33;;;;;;;;;;5135055;27;20437;-69
2022/06/09 00:48:20;;;;;;;20.20;15.50;;;;;;;;;;5135745;27;20538;-69
2022/06/09 00:50:49;;;;;;;19.23;14.37;;;;;;;;;;5135376;27;20475;-69
2022/06/09 00:53:18;;;;;;;24.00;14.97;;;;;;;;;;5135192;27;20450;-70
2022/06/09 00:55:46;;;;;;;20.80;15.67;;;;;;;;;;5134902;27;20462;-70
2022/06/09 00:58:15;;;;;;;22.50;14.40;;;;;;;;;;5135371;27;20442;-70
2022/06/09 01:00:46;;;;;;;21.10;15.20;;;;;;;;;;5135228;27;20844;-70
2022/06/09 01:03:13;;;;;;;22.13;14.43;;;;;;;;;;5135308;27;20792;-70
2022/06/09 01:05:43;;;;;;;27.13;15.77;;;;;;;;;;5135131;27;20881;-69
2022/06/09 01:08:11;;;;;;;19.43;14.47;;;;;;;;;;5135001;27;20522;-69
2022/06/09 01:10:38;;;;;;;19.50;14.10;;;;;;;;;;5134617;27;20531;-70
2022/06/09 01:13:06;;;;;;;16.87;13.90;;;;;;;;;;5135105;27;20469;-69
2022/06/09 01:15:37;;;;;;;22.87;13.60;;;;;;;;;;5134804;27;20861;-69
2022/06/09 01:18:10;;;;;;;17.03;12.80;;;;;;;;;;5135190;27;20446;-70
2022/06/09 01:20:41;;;;;;;18.10;12.87;;;;;;;;;;5135115;27;20851;-69
2022/06/09 01:23:26;;;;;;;20.10;12.60;;;;;;;;;;5134527;27;20516;-69
2022/06/09 01:26:03;;;;;;;18.83;12.10;;;;;;;;;;5134372;27;20530;-69
2022/06/09 01:28:49;;;;;;;15.63;11.47;;;;;;;;;;5135022;27;20503;-69
2022/06/09 01:31:20;;;;;;;14.37;10.53;;;;;;;;;;5134680;27;20454;-69
2022/06/09 01:33:49;;;;;;;16.10;11.23;;;;;;;;;;5134752;27;20456;-69
2022/06/09 01:36:21;;;;;;;20.50;11.00;;;;;;;;;;5134046;27;20483;-69
2022/06/09 01:38:49;;;;;;;17.10;12.07;;;;;;;;;;5134830;27;20461;-69
2022/06/09 01:41:17;;;;;;;17.13;12.57;;;;;;;;;;5134429;27;20448;-69
2022/06/09 01:43:46;;;;;;;20.60;11.90;;;;;;;;;;5134198;27;20535;-69
2022/06/09 01:46:20;;;;;;;19.23;12.30;;;;;;;;;;5134434;27;20471;-69
2022/06/09 01:48:51;;;;;;;16.53;11.10;;;;;;;;;;5134447;27;20454;-69
2022/06/09 01:51:20;;;;;;;17.13;11.93;;;;;;;;;;5134008;28;20451;-69
2022/06/09 01:53:50;;;;;;;16.37;10.07;;;;;;;;;;5134448;28;20481;-70
2022/06/09 01:56:20;;;;;;;21.13;10.37;;;;;;;;;;5134228;28;20908;-70
2022/06/09 01:58:48;;;;;;;16.47;11.10;;;;;;;;;;5134062;28;20521;-69
2022/06/09 02:01:17;;;;;;;17.47;9.53;;;;;;;;;;5134390;28;20440;-69
2022/06/09 02:03:45;;;;;;;16.37;10.50;;;;;;;;;;5134040;28;20448;-69
2022/06/09 02:06:15;;;;;;;21.50;10.83;;;;;;;;;;5133915;28;20477;-69
2022/06/09 02:08:42;;;;;;;25.37;10.43;;;;;;;;;;5134297;28;20861;-69
2022/06/09 02:11:11;;;;;;;13.97;9.83;;;;;;;;;;5134112;28;20445;-69
2022/06/09 02:13:40;;;;;;;14.77;10.70;;;;;;;;;;5134188;28;20443;-70
2022/06/09 02:16:08;;;;;;;20.27;10.33;;;;;;;;;;5133821;28;20440;-70
2022/06/09 02:18:38;;;;;;;11.97;10.07;;;;;;;;;;5133952;28;20872;-69
2022/06/09 02:21:07;;;;;;;16.60;10.17;;;;;;;;;;5133874;28;20432;-70
2022/06/09 02:23:36;;;;;;;17.30;10.20;;;;;;;;;;5134186;28;20518;-69
2022/06/09 02:26:04;;;;;;;23.70;13.73;;;;;;;;;;5134049;28;20871;-70
2022/06/09 02:28:31;;;;;;;18.27;10.37;;;;;;;;;;5134095;28;20876;-69
2022/06/09 02:30:58;;;;;;;16.93;10.73;;;;;;;;;;5134285;28;20787;-69
2022/06/09 02:33:25;;;;;;;20.23;11.20;;;;;;;;;;5134020;28;20570;-69
2022/06/09 02:35:53;;;;;;;20.87;11.20;;;;;;;;;;5133616;28;20521;-69
2022/06/09 02:38:21;;;;;;;15.33;11.93;;;;;;;;;;5133632;28;20478;-69
2022/06/09 02:40:50;;;;;;;16.30;11.40;;;;;;;;;;5134479;28;20515;-69
2022/06/09 02:43:17;;;;;;;16.30;11.07;;;;;;;;;;5133649;28;20524;-69
2022/06/09 02:45:44;;;;;;;24.37;11.07;;;;;;;;;;5133574;27;20531;-69
2022/06/09 02:48:12;;;;;;;17.40;10.53;;;;;;;;;;5137408;27;20535;-69
2022/06/09 02:50:40;;;;;;;17.87;11.40;;;;;;;;;;5137981;27;20892;-69
2022/06/09 02:53:07;;;;;;;19.00;12.10;;;;;;;;;;5137809;27;20565;-69
2022/06/09 02:55:35;;;;;;;17.13;11.23;;;;;;;;;;5137234;27;20435;-69
2022/06/09 02:58:04;;;;;;;19.47;10.50;;;;;;;;;;5137318;27;20450;-70
2022/06/09 03:00:31;;;;;;;22.33;12.40;;;;;;;;;;5137408;27;20432;-69
2022/06/09 03:02:59;;;;;;;23.63;12.10;;;;;;;;;;5137867;27;20482;-69
2022/06/09 03:05:27;;;;;;;17.33;11.87;;;;;;;;;;5137420;27;20497;-69
2022/06/09 03:07:54;;;;;;;20.33;10.20;;;;;;;;;;5137392;27;20436;-69
2022/06/09 03:10:21;;;;;;;16.10;10.20;;;;;;;;;;5137376;27;20465;-70
2022/06/09 03:12:48;;;;;;;18.80;9.60;;;;;;;;;;5137174;27;20474;-70
2022/06/09 03:15:19;;;;;;;14.73;9.77;;;;;;;;;;5137209;27;20446;-69
2022/06/09 03:17:46;;;;;;;17.60;9.40;;;;;;;;;;5137289;27;20471;-69
2022/06/09 03:20:15;;;;;;;16.10;10.40;;;;;;;;;;5137160;27;20515;-70
2022/06/09 03:22:42;;;;;;;18.23;9.57;;;;;;;;;;5137100;27;20531;-69
2022/06/09 03:25:09;;;;;;;16.87;10.20;;;;;;;;;;5137071;27;20442;-69
2022/06/09 03:27:36;;;;;;;15.00;10.03;;;;;;;;;;5137023;27;20467;-69
2022/06/09 03:30:04;;;;;;;16.00;9.27;;;;;;;;;;5136654;27;20442;-69
2022/06/09 03:32:32;;;;;;;16.33;9.17;;;;;;;;;;5136933;27;20826;-70
2022/06/09 03:35:00;;;;;;;20.67;9.53;;;;;;;;;;5136871;27;20489;-69
2022/06/09 03:37:27;;;;;;;17.70;11.37;;;;;;;;;;5136412;27;20438;-70
2022/06/09 03:39:54;;;;;;;17.30;10.40;;;;;;;;;;5136838;27;20524;-70
2022/06/09 03:42:21;;;;;;;14.67;11.00;;;;;;;;;;5136262;27;20446;-70
2022/06/09 03:44:48;;;;;;;13.20;10.10;;;;;;;;;;5137015;27;20455;-68
2022/06/09 03:47:16;;;;;;;18.63;13.03;;;;;;;;;;5136205;27;20997;-68
2022/06/09 03:49:44;;;;;;;17.00;11.83;;;;;;;;;;5136056;27;20502;-68
2022/06/09 03:52:12;;;;;;;24.67;12.50;;;;;;;;;;5136325;27;20474;-68
2022/06/09 03:54:39;;;;;;;21.03;13.37;;;;;;;;;;5137067;27;20543;-68
2022/06/09 03:57:06;;;;;;;15.27;12.80;;;;;;;;;;5135978;27;20452;-68
2022/06/09 03:59:34;;;;;;;20.93;13.87;;;;;;;;;;5132551;27;20446;-68
2022/06/09 04:02:01;;;;;;;20.83;13.00;;;;;;;;;;5135144;27;20968;-68
2022/06/09 04:04:28;;;;;;;19.00;13.60;;;;;;;;;;5135707;27;20480;-68
2022/06/09 04:06:58;;;;;;;21.53;14.23;;;;;;;;;;5135202;27;20950;-68
2022/06/09 04:09:25;;;;;;;22.37;14.90;;;;;;;;;;5135986;27;20780;-68
2022/06/09 04:11:52;;;;;;;26.90;13.77;;;;;;;;;;5135819;27;20471;-68
2022/06/09 04:14:19;;;;;;;24.77;13.30;;;;;;;;;;5136129;27;20490;-68
2022/06/09 04:16:47;;;;;;;26.47;15.70;;;;;;;;;;5135834;27;20477;-69
2022/06/09 04:19:15;;;;;;;23.70;15.10;;;;;;;;;;5135365;27;20532;-68
2022/06/09 04:21:43;;;;;;;21.57;13.70;;;;;;;;;;5135757;27;20474;-68
2022/06/09 04:24:12;;;;;;;28.80;14.40;;;;;;;;;;5135457;27;20447;-69
2022/06/09 04:26:41;;;;;;;28.23;17.23;;;;;;;;;;5135494;27;20858;-68
2022/06/09 04:29:11;;;;;;;20.33;14.70;;;;;;;;;;5133681;27;20517;-68
2022/06/09 04:31:38;;;;;;;21.27;14.60;;;;;;;;;;5115005;28;20437;-68
2022/06/09 04:34:06;;;;;;;22.40;14.97;;;;;;;;;;5114987;28;20563;-68
2022/06/09 04:36:33;;;;;;;24.03;16.43;;;;;;;;;;5114865;28;20431;-68
2022/06/09 04:39:00;;;;;;;28.40;16.87;;;;;;;;;;5114389;28;21034;-68
2022/06/09 04:41:29;;;;;;;27.70;17.53;;;;;;;;;;5114686;28;20531;-68
2022/06/09 04:43:57;;;;;;;25.57;19.10;;;;;;;;;;5114493;28;20442;-68
2022/06/09 04:46:25;;;;;;;37.50;18.30;;;;;;;;;;5115498;28;20543;-68
2022/06/09 04:48:53;;;;;;;24.87;17.57;;;;;;;;;;5114576;28;20532;-68
2022/06/09 04:51:21;;;;;;;26.87;19.20;;;;;;;;;;5114764;28;20516;-69
2022/06/09 04:53:48;;;;;;;25.50;17.00;;;;;;;;;;5114602;28;20475;-68
2022/06/09 04:56:16;;;;;;;29.57;19.13;;;;;;;;;;5114503;28;20524;-69
2022/06/09 04:58:47;;;;;;;23.90;19.10;;;;;;;;;;5114215;28;20941;-69
2022/06/09 05:01:17;;;;;;;19.93;16.57;;;;;;;;;;5114442;28;20847;-68
2022/06/09 05:03:44;;;;;;;25.33;18.13;;;;;;;;;;5114205;28;20446;-68
2022/06/09 05:06:11;;;;;;;30.97;18.27;;;;;;;;;;5114499;28;20432;-68
2022/06/09 05:08:40;;;;;;;27.33;17.43;;;;;;;;;;5113470;28;20485;-68
2022/06/09 05:11:07;;;;;;;24.03;17.07;;;;;;;;;;5113194;28;20939;-68
2022/06/09 05:13:35;;;;;;;32.23;18.10;;;;;;;;;;5114212;28;20598;-69
2022/06/09 05:16:04;;;;;;;22.93;17.37;;;;;;;;;;5114585;28;20479;-69
2022/06/09 05:18:33;;;;;;;25.73;16.40;;;;;;;;;;5114623;28;20533;-70
2022/06/09 05:21:00;;;;;;;30.00;17.47;;;;;;;;;;5114433;28;20488;-68
2022/06/09 05:23:30;;;;;;;22.20;17.10;;;;;;;;;;5114369;28;20483;-68
2022/06/09 05:25:59;;;;;;;26.67;17.57;;;;;;;;;;5114264;28;20519;-68
2022/06/09 05:28:27;;;;;;;20.43;16.30;;;;;;;;;;5113776;28;20433;-67
2022/06/09 05:30:54;;;;;;;21.53;16.47;;;;;;;;;;5113813;28;21027;-68
2022/06/09 05:33:23;;;;;;;22.77;17.57;;;;;;;;;;5113992;28;20477;-67
2022/06/09 05:35:51;;;;;;;22.47;14.97;;;;;;;;;;5114100;28;20539;-68
2022/06/09 05:46:34;;;;;;;26.87;14.50;;;;;;;;;;5113824;28;20463;-67
2022/06/09 05:49:03;;;;;;;21.37;14.93;;;;;;;;;;5114013;28;20499;-67
2022/06/09 05:51:32;;;;;;;22.70;15.17;;;;;;;;;;5113568;28;20517;-67
2022/06/09 05:54:00;;;;;;;25.77;15.27;;;;;;;;;;5113386;28;20479;-67
2022/06/09 05:56:27;;;;;;;23.27;15.97;;;;;;;;;;5113682;28;20538;-67
2022/06/09 05:58:55;;;;;;;19.77;15.30;;;;;;;;;;5113676;28;20529;-67
2022/06/09 06:01:22;;;;;;;21.33;13.80;;;;;;;;;;5113437;28;20451;-68
2022/06/09 06:03:49;;;;;;;28.43;15.67;;;;;;;;;;5113687;28;20486;-67
2022/06/09 06:06:36;;;;;;;23.90;16.30;;;;;;;;;;5113756;28;20517;-67
2022/06/09 06:09:05;;;;;;;25.33;16.90;;;;;;;;;;5113765;28;20513;-67
2022/06/09 06:11:32;;;;;;;18.07;13.67;;;;;;;;;;5113697;28;20452;-67
2022/06/09 06:13:59;;;;;;;20.33;14.90;;;;;;;;;;5113495;28;20936;-68
2022/06/09 06:16:26;;;;;;;25.20;15.37;;;;;;;;;;5113648;28;20942;-67
2022/06/09 06:18:54;;;;;;;25.50;15.47;;;;;;;;;;5113207;28;20484;-67
2022/06/09 06:21:22;;;;;;;19.80;13.53;;;;;;;;;;5113850;28;20451;-67
2022/06/09 06:23:50;;;;;;;21.67;15.90;;;;;;;;;;5117584;28;20444;-67
2022/06/09 06:26:17;;;;;;;18.43;13.37;;;;;;;;;;5117699;28;20481;-67
2022/06/09 06:28:45;;;;;;;23.50;14.67;;;;;;;;;;5117476;28;20439;-68
2022/06/09 06:31:12;;;;;;;22.60;15.30;;;;;;;;;;5117338;28;20924;-68
2022/06/09 06:33:39;;;;;;;18.83;14.37;;;;;;;;;;5117365;28;20531;-67
2022/06/09 06:36:07;;;;;;;17.70;15.47;;;;;;;;;;5117478;28;20466;-68
2022/06/09 06:38:36;;;;;;;19.23;13.90;;;;;;;;;;5117368;28;20468;-67
2022/06/09 06:41:05;;;;;;;25.80;14.97;;;;;;;;;;5117442;28;20476;-67
2022/06/09 06:43:32;;;;;;;21.57;15.77;;;;;;;;;;5117568;28;20482;-67
2022/06/09 06:46:00;;;;;;;20.57;13.97;;;;;;;;;;5116952;28;20603;-67
2022/06/09 06:48:27;;;;;;;20.40;13.83;;;;;;;;;;5117192;28;20478;-67
2022/06/09 06:50:54;;;;;;;17.97;13.70;;;;;;;;;;5117543;28;20502;-67
2022/06/09 06:53:21;;;;;;;16.63;12.90;;;;;;;;;;5117067;28;20768;-67
2022/06/09 06:55:50;;;;;;;16.27;12.80;;;;;;;;;;5117043;28;20449;-68
2022/06/09 06:58:17;;;;;;;20.80;14.23;;;;;;;;;;5116786;28;20446;-67
2022/06/09 07:00:45;;;;;;;12.97;11.67;;;;;;;;;;5116702;28;20424;-68
2022/06/09 07:03:12;;;;;;;14.27;11.70;;;;;;;;;;5116958;28;20865;-68
2022/06/09 07:05:39;;;;;;;14.87;10.67;;;;;;;;;;5116777;28;20436;-68
2022/06/09 07:08:07;;;;;;;18.10;12.70;;;;;;;;;;5116954;28;20444;-67
2022/06/09 07:10:35;;;;;;;13.43;11.97;;;;;;;;;;5116737;28;20492;-67
2022/06/09 07:13:04;;;;;;;14.60;10.30;;;;;;;;;;5116370;28;20561;-67
2022/06/09 07:15:31;;;;;;;17.13;11.17;;;;;;;;;;5116219;28;20480;-67
2022/06/09 07:17:58;;;;;;;16.47;12.77;;;;;;;;;;5116569;28;20486;-68
2022/06/09 07:20:26;;;;;;;13.03;11.73;;;;;;;;;;5116230;28;20439;-67
2022/06/09 07:22:53;;;;;;;14.63;11.27;;;;;;;;;;5116553;28;20436;-67
2022/06/09 07:25:23;;;;;;;18.67;13.10;;;;;;;;;;5116462;28;20439;-67
2022/06/09 07:27:51;;;;;;;15.23;12.37;;;;;;;;;;5116464;28;20926;-67
2022/06/09 07:30:20;;;;;;;17.90;12.17;;;;;;;;;;5116005;28;20533;-67
2022/06/09 07:32:48;;;;;;;16.57;12.27;;;;;;;;;;5116294;28;20792;-68
2022/06/09 07:35:16;;;;;;;18.53;13.03;;;;;;;;;;5115942;28;20530;-67
2022/06/09 07:37:43;;;;;;;17.30;12.67;;;;;;;;;;5116236;28;20917;-67
2022/06/09 07:40:11;;;;;;;15.70;12.70;;;;;;;;;;5115789;28;20442;-67
2022/06/09 07:42:39;;;;;;;19.00;13.40;;;;;;;;;;5115819;28;20527;-67
2022/06/09 07:45:08;;;;;;;21.13;13.30;;;;;;;;;;5115651;28;20483;-67
2022/06/09 07:47:37;;;;;;;16.40;12.73;;;;;;;;;;5115829;28;20440;-68
2022/06/09 07:50:05;;;;;;;18.10;13.13;;;;;;;;;;5115941;28;20477;-67
2022/06/09 07:52:33;;;;;;;17.43;12.30;;;;;;;;;;5115911;28;20443;-68
2022/06/09 07:55:00;;;;;;;14.97;11.73;;;;;;;;;;5115434;28;20479;-67
2022/06/09 07:57:27;;;;;;;16.77;13.07;;;;;;;;;;5116161;28;20439;-67
2022/06/09 07:59:54;;;;;;;16.13;13.07;;;;;;;;;;5115774;28;20592;-67
2022/06/09 08:02:22;;;;;;;14.97;11.90;;;;;;;;;;5116211;28;20476;-67
2022/06/09 08:04:50;;;;;;;18.33;13.00;;;;;;;;;;5115586;28;20444;-67
2022/06/09 08:07:18;;;;;;;20.53;13.23;;;;;;;;;;5115330;28;20528;-67
2022/06/09 08:09:45;;;;;;;15.93;11.77;;;;;;;;;;5115551;28;20443;-67
2022/06/09 08:12:12;;;;;;;14.03;12.10;;;;;;;;;;5115285;28;20451;-68
2022/06/09 08:14:40;;;;;;;15.30;13.00;;;;;;;;;;5114785;28;20505;-67
2022/06/09 08:17:09;;;;;;;15.10;10.67;;;;;;;;;;5115317;28;20494;-68
2022/06/09 08:19:36;;;;;;;12.93;9.83;;;;;;;;;;5115467;28;20458;-67
2022/06/09 08:22:05;;;;;;;16.63;10.07;;;;;;;;;;5114986;28;20438;-67
2022/06/09 08:24:33;;;;;;;16.10;11.00;;;;;;;;;;5115365;28;20533;-67
2022/06/09 08:27:00;;;;;;;16.83;9.40;;;;;;;;;;5114920;28;20450;-68
2022/06/09 08:29:29;;;;;;;13.43;9.93;;;;;;;;;;5115296;28;20800;-68
2022/06/09 08:31:56;;;;;;;15.60;9.93;;;;;;;;;;5114813;28;20450;-69
2022/06/09 08:34:23;;;;;;;13.10;10.07;;;;;;;;;;5115098;28;20568;-68
2022/06/09 08:36:51;;;;;;;14.77;9.43;;;;;;;;;;5115001;28;20548;-68
2022/06/09 08:39:20;;;;;;;12.00;8.77;;;;;;;;;;5115154;28;20799;-68
2022/06/09 08:41:53;;;;;;;10.77;8.10;;;;;;;;;;5114887;28;20808;-67
2022/06/09 08:44:26;;;;;;;11.47;6.60;;;;;;;;;;5114437;28;20857;-68
2022/06/09 08:46:58;;;;;;;9.60;7.53;;;;;;;;;;5114601;28;20511;-68
2022/06/09 08:49:32;;;;;;;8.07;7.27;;;;;;;;;;5114855;28;21038;-67
2022/06/09 08:52:01;;;;;;;8.27;6.70;;;;;;;;;;5114870;28;20523;-67
2022/06/09 08:54:31;;;;;;;10.67;6.60;;;;;;;;;;5114371;28;20985;-68
2022/06/09 08:57:02;;;;;;;10.13;6.70;;;;;;;;;;5114838;28;20529;-68
2022/06/09 08:59:36;;;;;;;8.50;5.37;;;;;;;;;;5114731;28;20433;-68
2022/06/09 09:02:05;;;;;;;5.30;4.63;;;;;;;;;;5114457;28;20452;-69
2022/06/09 09:04:34;;;;;;;12.17;5.60;;;;;;;;;;5114183;28;20540;-68
2022/06/09 09:07:06;;;;;;;4.57;4.17;;;;;;;;;;5114360;28;20875;-69
2022/06/09 09:09:36;;;;;;;7.33;4.40;;;;;;;;;;5114203;28;20437;-68
2022/06/09 09:12:06;;;;;;;6.43;3.63;;;;;;;;;;5114420;28;20513;-68
2022/06/09 09:14:37;;;;;;;7.10;3.60;;;;;;;;;;5114563;28;20800;-69
2022/06/09 09:17:11;;;;;;;7.30;3.70;;;;;;;;;;5114407;28;20472;-69
2022/06/09 09:19:44;;;;;;;7.70;3.53;;;;;;;;;;5114540;28;20522;-69
2022/06/09 09:22:14;;;;;;;4.23;3.30;;;;;;;;;;5114337;28;20508;-69
2022/06/09 09:24:46;;;;;;;4.63;3.20;;;;;;;;;;5114214;28;20474;-68
2022/06/09 09:27:19;;;;;;;7.57;2.80;;;;;;;;;;5114187;28;20429;-68
2022/06/09 09:29:48;;;;;;;7.63;3.13;;;;;;;;;;5113878;28;20956;-68
2022/06/09 09:32:18;;;;;;;5.60;3.13;;;;;;;;;;5114103;28;20436;-69
2022/06/09 09:34:47;;;;;;;5.10;3.27;;;;;;;;;;5114167;28;20483;-68
2022/06/09 09:37:20;;;;;;;3.03;2.67;;;;;;;;;;5114252;28;20432;-67
2022/06/09 09:39:52;;;;;;;6.03;2.77;;;;;;;;;;5114415;28;20509;-67
2022/06/09 09:42:20;;;;;;;3.57;3.27;;;;;;;;;;5114010;28;20429;-69
2022/06/09 09:45:02;;;;;;;4.50;2.33;;;;;;;;;;5113651;28;20509;-68
2022/06/09 09:47:30;;;;;;;6.30;2.90;;;;;;;;;;5113935;28;20836;-68
2022/06/09 09:50:00;;;;;;;3.43;2.40;;;;;;;;;;5114088;28;20797;-68
2022/06/09 09:52:35;;;;;;;3.37;2.37;;;;;;;;;;5113632;28;20426;-68
2022/06/09 09:55:04;;;;;;;3.60;2.40;;;;;;;;;;5114668;28;20464;-68
2022/06/09 09:57:33;;;;;;;5.23;2.30;;;;;;;;;;5120637;28;20438;-68
2022/06/09 10:00:00;;;;;;;4.30;2.30;;;;;;;;;;5120735;28;20461;-70
2022/06/09 10:08:38;;;;;;;3.40;2.33;;;;;;;;;;5120354;28;20401;-68
2022/06/09 10:11:53;;;;;;;6.30;2.90;;;;;;;;;;5120535;28;20954;-67
2022/06/09 10:13:59;;;;;;;8.53;2.73;;;;;;;;;;5119949;28;20441;-68
2022/06/09 10:16:28;;;;;;;3.13;2.73;;;;;;;;;;5120106;28;20447;-66
2022/06/09 10:18:56;;;;;;;2.27;2.17;;;;;;;;;;5120225;28;20537;-68
2022/06/09 10:21:24;;;;;;;3.63;2.10;;;;;;;;;;5120386;28;20502;-68
2022/06/09 10:23:54;;;;;;;5.00;2.73;;;;;;;;;;5120155;28;20464;-68
2022/06/09 10:26:24;;;;;;;3.40;2.50;;;;;;;;;;5120868;28;20426;-67
2022/06/09 10:28:58;;;;;;;3.90;2.40;;;;;;;;;;5120421;28;20503;-68
2022/06/09 10:31:34;;;;;;;6.23;2.10;;;;;;;;;;5120013;28;20434;-68
2022/06/09 10:34:04;;;;;;;4.93;1.93;;;;;;;;;;5120678;28;20861;-68
2022/06/09 10:36:38;;;;;;;3.17;1.90;;;;;;;;;;5120915;28;20497;-68
2022/06/09 10:39:13;;;;;;;1.97;1.80;;;;;;;;;;5120384;28;20433;-68
2022/06/09 10:41:45;;;;;;;3.70;2.10;;;;;;;;;;5119951;28;20545;-68
2022/06/09 10:44:14;;;;;;;2.80;1.77;;;;;;;;;;5120383;28;20835;-68
2022/06/09 10:46:45;;;;;;;3.40;1.83;;;;;;;;;;5120188;28;20443;-68
2022/06/09 10:57:40;;;;;;;3.47;2.30;;;;;;;;;;5119951;28;20948;-68
2022/06/09 11:00:12;;;;;;;4.23;2.10;;;;;;;;;;5119860;28;20521;-67
2022/06/09 11:02:40;;;;;;;10.13;2.33;;;;;;;;;;5120192;28;20427;-67
2022/06/09 11:05:08;;;;;;;2.80;2.43;;;;;;;;;;5120782;28;20817;-67
2022/06/09 11:07:45;;;;;;;3.07;2.17;;;;;;;;;;5117667;28;20470;-68
2022/06/09 11:10:19;;;;;;;4.30;2.17;;;;;;;;;;5117279;28;20426;-68
2022/06/09 11:12:52;;;;;;;2.87;2.33;;;;;;;;;;5117127;28;20521;-68
2022/06/09 11:15:26;;;;;;;3.27;2.97;;;;;;;;;;5116715;28;20974;-68
2022/06/09 11:17:58;;;;;;;3.23;3.03;;;;;;;;;;5116504;28;20477;-68
2022/06/09 11:20:30;;;;;;;5.60;3.80;;;;;;;;;;5116692;28;20521;-68
2022/06/09 11:23:01;;;;;;;5.80;3.97;;;;;;;;;;5116261;28;20950;-68
2022/06/09 11:25:45;;;;;;;6.43;4.10;;;;;;;;;;5117217;28;20432;-68
2022/06/09 11:28:19;;;;;;;8.30;4.70;;;;;;;;;;5116434;28;20433;-68
2022/06/09 11:31:07;;;;;;;6.33;3.70;;;;;;;;;;5116464;28;20526;-67
2022/06/09 11:33:46;;;;;;;5.87;3.70;;;;;;;;;;5109910;28;20449;-68
2022/06/09 11:36:18;;;;;;;6.43;3.93;;;;;;;;;;5116157;28;21064;-68
2022/06/09 11:38:53;;;;;;;3.60;3.30;;;;;;;;;;5116516;28;20434;-69
2022/06/09 11:41:31;;;;;;;2.80;2.53;;;;;;;;;;5116494;28;20469;-68
2022/06/09 11:44:05;;;;;;;3.30;2.73;;;;;;;;;;5116317;28;20457;-68
2022/06/09 11:46:34;;;;;;;4.10;2.67;;;;;;;;;;5115874;28;20461;-68
2022/06/09 11:49:03;;;;;;;2.97;2.30;;;;;;;;;;5115860;28;20519;-68
2022/06/09 11:51:31;;;;;;;3.00;2.63;;;;;;;;;;5115765;28;20481;-69
2022/06/09 11:54:01;;;;;;;5.17;3.30;;;;;;;;;;5116110;28;20442;-68
2022/06/09 11:56:39;;;;;;;3.63;2.57;;;;;;;;;;5116234;28;20470;-68
2022/06/09 11:59:17;;;;;;;4.13;3.60;;;;;;;;;;5115952;28;20817;-68
2022/06/09 12:02:15;;;;;;;8.40;3.97;;;;;;;;;;5116239;28;20546;-68
2022/06/09 12:04:56;;;;;;;3.87;3.53;;;;;;;;;;5115806;28;20432;-68
2022/06/09 12:07:28;;;;;;;4.17;2.70;;;;;;;;;;5115920;28;20841;-68
2022/06/09 12:10:03;;;;;;;3.10;2.27;;;;;;;;;;5115906;28;20527;-68
2022/06/09 12:12:32;;;;;;;8.50;2.00;;;;;;;;;;5115746;28;20433;-66
2022/06/09 12:15:22;;;;;;;3.50;1.93;;;;;;;;;;5115462;28;20556;-67
2022/06/09 12:17:56;;;;;;;5.53;2.30;;;;;;;;;;5115524;28;20524;-67
2022/06/09 12:20:29;;;;;;;2.60;1.60;;;;;;;;;;5114596;28;20804;-67
2022/06/09 12:23:02;;;;;;;5.93;1.70;;;;;;;;;;5115333;28;20472;-67
2022/06/09 12:25:33;;;;;;;2.37;2.13;;;;;;;;;;5115152;28;20468;-67
2022/06/09 12:28:11;;;;;;;3.23;2.50;;;;;;;;;;5115001;28;20430;-66
2022/06/09 12:30:40;;;;;;;2.40;1.87;;;;;;;;;;5115016;28;20483;-67
2022/06/09 12:33:26;;;;;;;4.43;1.90;;;;;;;;;;5114871;28;20524;-66
2022/06/09 12:35:54;;;;;;;2.90;1.73;;;;;;;;;;5114745;28;20477;-68
2022/06/09 12:38:23;;;;;;;2.30;1.83;;;;;;;;;;5115478;28;20445;-67
2022/06/09 12:40:52;;;;;;;2.60;2.10;;;;;;;;;;5115075;28;20794;-67
2022/06/09 12:43:31;;;;;;;7.20;2.07;;;;;;;;;;5114984;28;20446;-67
2022/06/09 12:46:19;;;;;;;3.53;2.30;;;;;;;;;;5114759;28;20522;-68
2022/06/09 12:48:46;;;;;;;2.07;1.93;;;;;;;;;;5114924;28;20850;-67
2022/06/09 12:51:19;;;;;;;2.93;2.20;;;;;;;;;;5114619;28;20494;-67
2022/06/09 12:53:52;;;;;;;3.63;3.33;;;;;;;;;;5114323;28;20512;-68
2022/06/09 12:56:23;;;;;;;3.53;3.00;;;;;;;;;;5114371;28;20553;-70
2022/06/09 12:58:56;;;;;;;7.20;3.03;;;;;;;;;;5114350;28;20473;-70
2022/06/09 13:01:25;;;;;;;3.00;2.70;;;;;;;;;;5114691;28;20806;-71
2022/06/09 13:03:54;;;;;;;4.30;2.53;;;;;;;;;;5114486;28;20446;-70
2022/06/09 13:06:23;;;;;;;2.97;2.40;;;;;;;;;;5114255;28;20450;-71
2022/06/09 13:08:55;;;;;;;8.60;3.60;;;;;;;;;;5114493;28;20512;-70
2022/06/09 13:14:06;;;;;;;6.10;3.77;;;;;;;;;;5131068;27;20504;-70
2022/06/09 13:16:39;;;;;;;4.10;3.90;;;;;;;;;;5134325;27;20473;-70
2022/06/09 13:19:09;;;;;;;4.97;4.47;;;;;;;;;;5134755;27;20954;-70
2022/06/09 13:21:38;;;;;;;5.10;3.60;;;;;;;;;;5134395;27;20562;-70
2022/06/09 13:24:08;;;;;;;5.77;3.40;;;;;;;;;;5134376;27;20455;-70
2022/06/09 13:26:37;;;;;;;3.30;2.93;;;;;;;;;;5134966;27;20445;-71
2022/06/09 13:29:08;;;;;;;3.90;2.47;;;;;;;;;;5134416;27;20532;-72
2022/06/09 13:31:38;;;;;;;3.50;3.13;;;;;;;;;;5134236;27;20824;-71
2022/06/09 13:34:07;;;;;;;2.83;2.63;;;;;;;;;;5134795;27;20532;-71
2022/06/09 13:36:36;;;;;;;6.20;3.43;;;;;;;;;;5134488;27;20563;-71
2022/06/09 13:39:22;;;;;;;9.43;3.07;;;;;;;;;;5134459;27;20501;-70
2022/06/09 13:41:49;;;;;;;4.80;1.93;;;;;;;;;;5134220;27;20528;-71
2022/06/09 13:44:18;;;;;;;4.03;2.03;;;;;;;;;;5133885;27;20473;-70
2022/06/09 13:46:58;;;;;;;2.70;2.20;;;;;;;;;;5134350;27;21002;-70
2022/06/09 13:49:28;;;;;;;3.40;1.87;;;;;;;;;;5133899;27;21060;-70
2022/06/09 13:51:58;;;;;;;3.53;2.40;;;;;;;;;;5134224;27;20491;-70
2022/06/09 13:54:29;;;;;;;3.50;2.33;;;;;;;;;;5133759;28;20425;-70
2022/06/09 13:56:56;;;;;;;4.10;2.00;;;;;;;;;;5134348;28;20465;-70
2022/06/09 13:59:24;;;;;;;3.80;2.97;;;;;;;;;;5133887;28;20448;-70
2022/06/09 14:01:52;;;;;;;3.57;1.90;;;;;;;;;;5134247;28;20891;-70
2022/06/09 14:04:22;;;;;;;4.43;2.20;;;;;;;;;;5133805;28;20437;-70
2022/06/09 14:06:50;;;;;;;2.50;2.30;;;;;;;;;;5133923;28;20524;-70
2022/06/09 14:09:18;;;;;;;2.50;2.40;;;;;;;;;;5133938;28;20448;-72
2022/06/09 14:11:45;;;;;;;6.70;2.70;;;;;;;;;;5133534;28;20494;-71
2022/06/09 14:14:13;;;;;;;2.83;2.13;;;;;;;;;;5134030;28;20438;-71
2022/06/09 14:16:42;;;;;;;3.37;1.97;;;;;;;;;;5133581;28;20629;-70
2022/06/09 14:19:10;;;;;;;3.60;2.37;;;;;;;;;;5133705;28;20445;-71
2022/06/09 14:21:38;;;;;;;3.43;3.13;;;;;;;;;;5133700;28;20946;-71
2022/06/09 14:24:19;;;;;;;3.57;2.30;;;;;;;;;;5133577;28;20922;-70
2022/06/09 14:26:47;;;;;;;2.80;2.53;;;;;;;;;;5133702;28;20993;-71
2022/06/09 14:29:15;;;;;;;4.60;2.40;;;;;;;;;;5134044;28;20521;-71
2022/06/09 14:31:44;;;;;;;2.23;2.03;;;;;;;;;;5133488;28;20451;-70
2022/06/09 14:34:12;;;;;;;4.93;2.40;;;;;;;;;;5133987;28;20438;-70
2022/06/09 14:36:41;;;;;;;2.60;2.40;;;;;;;;;;5133756;28;20481;-71
2022/06/09 14:39:08;;;;;;;3.00;2.07;;;;;;;;;;5133848;28;20558;-71
2022/06/09 14:41:36;;;;;;;2.00;1.77;;;;;;;;;;5133630;27;20545;-71
2022/06/09 14:44:03;;;;;;;3.00;1.90;;;;;;;;;;5136764;27;20825;-71
2022/06/09 14:46:32;;;;;;;3.80;2.70;;;;;;;;;;5137649;27;20790;-70
2022/06/09 14:48:59;;;;;;;1.97;1.63;;;;;;;;;;5137529;27;20560;-70
2022/06/09 14:51:27;;;;;;;2.83;2.10;;;;;;;;;;5137653;27;20482;-70
2022/06/09 14:53:55;;;;;;;5.23;2.03;;;;;;;;;;5137378;27;20445;-70
2022/06/09 14:56:24;;;;;;;3.03;2.27;;;;;;;;;;5136987;27;20564;-70
2022/06/09 14:58:52;;;;;;;3.30;2.30;;;;;;;;;;5137511;27;20524;-71
2022/06/09 15:01:20;;;;;;;2.77;2.07;;;;;;;;;;5137004;27;20437;-70
2022/06/09 15:03:47;;;;;;;3.30;2.27;;;;;;;;;;5136848;27;20441;-69
2022/06/09 15:06:18;;;;;;;3.03;1.83;;;;;;;;;;5137197;27;20524;-70
2022/06/09 15:08:46;;;;;;;3.90;2.13;;;;;;;;;;5137177;27;20518;-69